sensor_id;sensor_type;location;lat;lon;timestamp;temperature;humidity
23801;DHT22;12081;48.614;10.226;2023-07-08T00:02:17;15.80;99.90
23801;DHT22;12081;48.614;10.226;2023-07-08T00:05:01;15.70;99.90
23801;DHT22;12081;48.614;10.226;2023-07-08T00:07:46;15.80;99.90
23801;DHT22;12081;48.614;10.226;2023-07-08T00:10:31;16.00;99.90
23801;DHT22;12081;48.614;10.226;2023-07-08T00:13:15;15.80;99.90
23801;DHT22;12081;48.614;10.226;2023-07-08T00:15:59;15.70;99.90
23801;DHT22;12081;48.614;10.226;2023-07-08T00:18:43;15.70;99.90
23801;DHT22;12081;48.614;10.226;2023-07-08T00:21:27;15.60;99.90
23801;DHT22;12081;48.614;10.226;2023-07-08T00:24:11;15.70;99.90
23801;DHT22;12081;48.614;10.226;2023-07-08T00:26:56;15.60;99.90
23801;DHT22;12081;48.614;10.226;2023-07-08T00:29:40;15.50;99.90
23801;DHT22;12081;48.614;10.226;2023-07-08T00:32:24;15.50;99.90
23801;DHT22;12081;48.614;10.226;2023-07-08T00:35:09;15.40;99.90
23801;DHT22;12081;48.614;10.226;2023-07-08T00:37:53;15.30;99.90
23801;DHT22;12081;48.614;10.226;2023-07-08T00:40:37;16.10;99.90
23801;DHT22;12081;48.614;10.226;2023-07-08T00:43:29;15.30;99.90
23801;DHT22;12081;48.614;10.226;2023-07-08T00:49:36;15.50;99.90
23801;DHT22;12081;48.614;10.226;2023-07-08T00:52:27;15.30;99.90
23801;DHT22;12081;48.614;10.226;2023-07-08T00:55:11;15.30;99.90
23801;DHT22;12081;48.614;10.226;2023-07-08T00:57:56;15.20;99.90
23801;DHT22;12081;48.614;10.226;2023-07-08T01:00:40;15.20;99.90
23801;DHT22;12081;48.614;10.226;2023-07-08T01:03:24;15.30;99.90
23801;DHT22;12081;48.614;10.226;2023-07-08T01:06:09;15.30;99.90
23801;DHT22;12081;48.614;10.226;2023-07-08T01:08:53;15.00;99.90
23801;DHT22;12081;48.614;10.226;2023-07-08T01:11:39;15.00;99.90
23801;DHT22;12081;48.614;10.226;2023-07-08T01:14:27;15.10;99.90
23801;DHT22;12081;48.614;10.226;2023-07-08T01:17:15;15.00;99.90
23801;DHT22;12081;48.614;10.226;2023-07-08T01:20:00;15.00;99.90
23801;DHT22;12081;48.614;10.226;2023-07-08T01:22:48;15.10;99.90
23801;DHT22;12081;48.614;10.226;2023-07-08T01:25:33;14.90;99.90
23801;DHT22;12081;48.614;10.226;2023-07-08T01:28:17;14.80;99.90
23801;DHT22;12081;48.614;10.226;2023-07-08T01:31:02;15.00;99.90
23801;DHT22;12081;48.614;10.226;2023-07-08T01:33:47;14.70;99.90
23801;DHT22;12081;48.614;10.226;2023-07-08T01:36:36;14.60;99.90
23801;DHT22;12081;48.614;10.226;2023-07-08T01:39:24;14.80;99.90
23801;DHT22;12081;48.614;10.226;2023-07-08T01:42:08;14.50;99.90
23801;DHT22;12081;48.614;10.226;2023-07-08T01:44:52;14.50;99.90
23801;DHT22;12081;48.614;10.226;2023-07-08T01:47:36;14.50;99.90
23801;DHT22;12081;48.614;10.226;2023-07-08T01:50:21;14.40;99.90
23801;DHT22;12081;48.614;10.226;2023-07-08T01:53:14;14.40;99.90
23801;DHT22;12081;48.614;10.226;2023-07-08T01:55:59;14.30;99.90
23801;DHT22;12081;48.614;10.226;2023-07-08T01:58:43;14.30;99.90
23801;DHT22;12081;48.614;10.226;2023-07-08T02:01:28;14.60;99.90
23801;DHT22;12081;48.614;10.226;2023-07-08T02:04:12;14.20;99.90
23801;DHT22;12081;48.614;10.226;2023-07-08T02:06:59;14.30;99.90
23801;DHT22;12081;48.614;10.226;2023-07-08T02:09:43;14.40;99.90
23801;DHT22;12081;48.614;10.226;2023-07-08T02:12:27;14.30;99.90
23801;DHT22;12081;48.614;10.226;2023-07-08T02:15:11;14.40;99.90
23801;DHT22;12081;48.614;10.226;2023-07-08T02:17:56;14.20;99.90
23801;DHT22;12081;48.614;10.226;2023-07-08T02:20:40;14.20;99.90
23801;DHT22;12081;48.614;10.226;2023-07-08T02:23:25;14.00;99.90
23801;DHT22;12081;48.614;10.226;2023-07-08T02:26:09;14.00;99.90
23801;DHT22;12081;48.614;10.226;2023-07-08T02:28:54;13.90;99.90
23801;DHT22;12081;48.614;10.226;2023-07-08T02:31:37;13.90;99.90
23801;DHT22;12081;48.614;10.226;2023-07-08T02:34:22;13.90;99.90
23801;DHT22;12081;48.614;10.226;2023-07-08T02:37:06;13.80;99.90
23801;DHT22;12081;48.614;10.226;2023-07-08T02:39:50;13.80;99.90
23801;DHT22;12081;48.614;10.226;2023-07-08T02:42:35;13.80;99.90
23801;DHT22;12081;48.614;10.226;2023-07-08T02:45:19;13.80;99.90
23801;DHT22;12081;48.614;10.226;2023-07-08T02:58:25;13.70;99.90
23801;DHT22;12081;48.614;10.226;2023-07-08T03:01:09;14.80;99.90
23801;DHT22;12081;48.614;10.226;2023-07-08T03:03:53;14.20;99.90
23801;DHT22;12081;48.614;10.226;2023-07-08T03:06:41;14.10;99.90
23801;DHT22;12081;48.614;10.226;2023-07-08T14:44:23;33.50;42.00
23801;DHT22;12081;48.614;10.226;2023-07-08T14:47:10;33.60;42.10
23801;DHT22;12081;48.614;10.226;2023-07-08T14:49:55;33.50;42.90
23801;DHT22;12081;48.614;10.226;2023-07-08T14:52:39;33.50;41.80
23801;DHT22;12081;48.614;10.226;2023-07-08T14:55:23;33.60;41.80
23801;DHT22;12081;48.614;10.226;2023-07-08T14:58:08;33.50;41.30
23801;DHT22;12081;48.614;10.226;2023-07-08T15:01:00;33.40;41.70
23801;DHT22;12081;48.614;10.226;2023-07-08T15:03:46;33.40;40.90
23801;DHT22;12081;48.614;10.226;2023-07-08T15:06:30;33.40;40.40
23801;DHT22;12081;48.614;10.226;2023-07-08T15:09:15;33.40;40.60
23801;DHT22;12081;48.614;10.226;2023-07-08T15:12:01;33.30;41.00
23801;DHT22;12081;48.614;10.226;2023-07-08T15:14:45;33.00;41.70
23801;DHT22;12081;48.614;10.226;2023-07-08T15:17:29;33.10;41.90
23801;DHT22;12081;48.614;10.226;2023-07-08T15:20:14;33.10;40.70
23801;DHT22;12081;48.614;10.226;2023-07-08T15:22:58;33.20;40.70
23801;DHT22;12081;48.614;10.226;2023-07-08T15:25:44;33.20;40.70
23801;DHT22;12081;48.614;10.226;2023-07-08T15:28:49;33.30;40.50
23801;DHT22;12081;48.614;10.226;2023-07-08T15:31:34;33.30;41.30
23801;DHT22;12081;48.614;10.226;2023-07-08T15:34:21;33.40;40.00
23801;DHT22;12081;48.614;10.226;2023-07-08T15:37:06;33.60;39.90
23801;DHT22;12081;48.614;10.226;2023-07-08T15:39:50;33.60;40.80
23801;DHT22;12081;48.614;10.226;2023-07-08T15:42:37;33.70;39.90
23801;DHT22;12081;48.614;10.226;2023-07-08T15:45:25;33.50;39.10
23801;DHT22;12081;48.614;10.226;2023-07-08T15:48:14;33.30;40.70
23801;DHT22;12081;48.614;10.226;2023-07-08T15:50:58;33.10;40.50
23801;DHT22;12081;48.614;10.226;2023-07-08T15:53:42;32.90;41.30
23801;DHT22;12081;48.614;10.226;2023-07-08T15:56:26;32.80;42.50
23801;DHT22;12081;48.614;10.226;2023-07-08T15:59:16;32.60;41.30
23801;DHT22;12081;48.614;10.226;2023-07-08T16:02:11;32.80;40.70
23801;DHT22;12081;48.614;10.226;2023-07-08T16:04:58;32.80;40.70
23801;DHT22;12081;48.614;10.226;2023-07-08T16:07:42;32.60;40.50
23801;DHT22;12081;48.614;10.226;2023-07-08T16:10:27;32.70;41.50
23801;DHT22;12081;48.614;10.226;2023-07-08T16:13:11;32.70;42.20
23801;DHT22;12081;48.614;10.226;2023-07-08T16:15:55;32.80;41.30
23801;DHT22;12081;48.614;10.226;2023-07-08T16:18:40;32.80;40.70
23801;DHT22;12081;48.614;10.226;2023-07-08T16:24:54;32.80;42.20
23801;DHT22;12081;48.614;10.226;2023-07-08T16:27:40;32.80;42.20
23801;DHT22;12081;48.614;10.226;2023-07-08T16:30:26;32.90;42.60
23801;DHT22;12081;48.614;10.226;2023-07-08T16:33:12;33.00;43.10
23801;DHT22;12081;48.614;10.226;2023-07-08T16:35:56;33.00;42.60
23801;DHT22;12081;48.614;10.226;2023-07-08T16:38:41;32.90;42.90
23801;DHT22;12081;48.614;10.226;2023-07-08T16:41:31;32.80;44.00
23801;DHT22;12081;48.614;10.226;2023-07-08T16:44:17;32.70;43.80
23801;DHT22;12081;48.614;10.226;2023-07-08T16:47:04;32.60;43.50
23801;DHT22;12081;48.614;10.226;2023-07-08T16:49:48;32.60;43.60
23801;DHT22;12081;48.614;10.226;2023-07-08T16:52:33;32.70;42.60
23801;DHT22;12081;48.614;10.226;2023-07-08T16:55:20;32.60;43.10
23801;DHT22;12081;48.614;10.226;2023-07-08T16:58:10;32.60;43.10
23801;DHT22;12081;48.614;10.226;2023-07-08T17:00:55;32.50;43.90
23801;DHT22;12081;48.614;10.226;2023-07-08T17:03:39;32.30;44.10
23801;DHT22;12081;48.614;10.226;2023-07-08T17:06:24;32.20;44.70
23801;DHT22;12081;48.614;10.226;2023-07-08T17:09:12;32.20;43.70
23801;DHT22;12081;48.614;10.226;2023-07-08T17:11:57;32.30;43.70
23801;DHT22;12081;48.614;10.226;2023-07-08T17:14:41;32.20;43.90
23801;DHT22;12081;48.614;10.226;2023-07-08T17:17:26;32.10;43.40
23801;DHT22;12081;48.614;10.226;2023-07-08T17:20:23;31.90;44.10
23801;DHT22;12081;48.614;10.226;2023-07-08T17:23:12;31.80;44.70
23801;DHT22;12081;48.614;10.226;2023-07-08T17:25:57;31.70;44.50
23801;DHT22;12081;48.614;10.226;2023-07-08T17:28:42;31.60;45.30
23801;DHT22;12081;48.614;10.226;2023-07-08T17:31:26;31.60;45.70
23801;DHT22;12081;48.614;10.226;2023-07-08T17:34:20;31.60;46.00
23801;DHT22;12081;48.614;10.226;2023-07-08T17:37:07;31.40;45.30
23801;DHT22;12081;48.614;10.226;2023-07-08T17:39:51;31.20;46.80
23801;DHT22;12081;48.614;10.226;2023-07-08T17:42:36;31.00;48.00
23801;DHT22;12081;48.614;10.226;2023-07-08T17:45:33;30.70;48.90
23801;DHT22;12081;48.614;10.226;2023-07-08T17:48:23;30.50;49.30
23801;DHT22;12081;48.614;10.226;2023-07-08T17:51:08;30.00;48.60
23801;DHT22;12081;48.614;10.226;2023-07-08T17:53:53;29.80;49.40
23801;DHT22;12081;48.614;10.226;2023-07-08T17:56:43;29.60;50.10
23801;DHT22;12081;48.614;10.226;2023-07-08T17:59:28;29.40;50.80
23801;DHT22;12081;48.614;10.226;2023-07-08T18:02:15;29.20;51.30
23801;DHT22;12081;48.614;10.226;2023-07-08T18:05:00;29.10;51.60
23801;DHT22;12081;48.614;10.226;2023-07-08T18:07:46;28.90;51.70
23801;DHT22;12081;48.614;10.226;2023-07-08T18:10:32;28.80;52.50
23801;DHT22;12081;48.614;10.226;2023-07-08T18:13:21;28.80;52.20
23801;DHT22;12081;48.614;10.226;2023-07-08T18:16:11;28.60;52.40
23801;DHT22;12081;48.614;10.226;2023-07-08T18:18:56;28.50;53.50
23801;DHT22;12081;48.614;10.226;2023-07-08T18:21:41;28.50;54.70
23801;DHT22;12081;48.614;10.226;2023-07-08T18:24:26;28.40;53.10
23801;DHT22;12081;48.614;10.226;2023-07-08T18:27:14;28.30;53.40
23801;DHT22;12081;48.614;10.226;2023-07-08T18:29:58;28.30;53.30
23801;DHT22;12081;48.614;10.226;2023-07-08T18:32:47;28.20;53.50
23801;DHT22;12081;48.614;10.226;2023-07-08T18:35:32;28.10;52.60
23801;DHT22;12081;48.614;10.226;2023-07-08T18:38:17;28.00;52.80
23801;DHT22;12081;48.614;10.226;2023-07-08T18:41:02;28.10;52.90
23801;DHT22;12081;48.614;10.226;2023-07-08T18:43:47;27.90;52.80
23801;DHT22;12081;48.614;10.226;2023-07-08T18:46:32;27.70;52.70
23801;DHT22;12081;48.614;10.226;2023-07-08T18:49:16;27.50;52.70
23801;DHT22;12081;48.614;10.226;2023-07-08T18:52:01;27.30;54.20
23801;DHT22;12081;48.614;10.226;2023-07-08T18:54:45;27.20;55.00
23801;DHT22;12081;48.614;10.226;2023-07-08T18:57:30;27.00;56.80
23801;DHT22;12081;48.614;10.226;2023-07-08T19:00:18;26.80;56.80
23801;DHT22;12081;48.614;10.226;2023-07-08T19:03:16;30.20;58.20
23801;DHT22;12081;48.614;10.226;2023-07-08T19:06:02;26.50;55.50
23801;DHT22;12081;48.614;10.226;2023-07-08T19:08:47;26.30;54.30
23801;DHT22;12081;48.614;10.226;2023-07-08T19:11:32;26.20;57.40
23801;DHT22;12081;48.614;10.226;2023-07-08T19:14:18;26.10;58.00
23801;DHT22;12081;48.614;10.226;2023-07-08T19:17:02;25.90;58.60
23801;DHT22;12081;48.614;10.226;2023-07-08T19:19:47;25.70;59.20
23801;DHT22;12081;48.614;10.226;2023-07-08T19:22:32;25.60;59.80
23801;DHT22;12081;48.614;10.226;2023-07-08T19:25:22;25.40;61.10
23801;DHT22;12081;48.614;10.226;2023-07-08T19:31:48;25.00;61.80
23801;DHT22;12081;48.614;10.226;2023-07-08T19:34:33;24.80;62.60
23801;DHT22;12081;48.614;10.226;2023-07-08T19:37:20;24.70;63.70
23801;DHT22;12081;48.614;10.226;2023-07-08T19:43:46;24.30;66.20
23801;DHT22;12081;48.614;10.226;2023-07-08T19:46:30;24.20;67.10
23801;DHT22;12081;48.614;10.226;2023-07-08T19:49:15;25.80;69.30
23801;DHT22;12081;48.614;10.226;2023-07-08T19:52:00;24.00;68.20
23801;DHT22;12081;48.614;10.226;2023-07-08T19:54:44;23.90;70.10
23801;DHT22;12081;48.614;10.226;2023-07-08T19:57:28;23.70;74.10
23801;DHT22;12081;48.614;10.226;2023-07-08T20:00:24;23.70;75.80
23801;DHT22;12081;48.614;10.226;2023-07-08T20:03:14;23.50;77.80
23801;DHT22;12081;48.614;10.226;2023-07-08T20:05:59;24.90;82.40
23801;DHT22;12081;48.614;10.226;2023-07-08T20:08:44;24.10;87.30
23801;DHT22;12081;48.614;10.226;2023-07-08T20:11:29;23.10;91.10
23801;DHT22;12081;48.614;10.226;2023-07-08T20:14:13;23.00;92.00
23801;DHT22;12081;48.614;10.226;2023-07-08T20:16:58;22.80;92.00
23801;DHT22;12081;48.614;10.226;2023-07-08T20:19:43;22.80;92.80
23801;DHT22;12081;48.614;10.226;2023-07-08T20:22:28;22.70;93.50
23801;DHT22;12081;48.614;10.226;2023-07-08T20:25:14;22.60;95.60
23801;DHT22;12081;48.614;10.226;2023-07-08T20:27:59;22.50;98.30
23801;DHT22;12081;48.614;10.226;2023-07-08T20:30:43;22.40;99.90
23801;DHT22;12081;48.614;10.226;2023-07-08T20:33:28;22.40;99.90
23801;DHT22;12081;48.614;10.226;2023-07-08T20:36:17;22.20;99.90
23801;DHT22;12081;48.614;10.226;2023-07-08T20:39:02;22.10;99.90
23801;DHT22;12081;48.614;10.226;2023-07-08T20:41:47;22.00;99.90
23801;DHT22;12081;48.614;10.226;2023-07-08T20:44:32;21.90;99.90
23801;DHT22;12081;48.614;10.226;2023-07-08T20:47:18;21.70;99.90
23801;DHT22;12081;48.614;10.226;2023-07-08T20:50:08;21.90;99.90
23801;DHT22;12081;48.614;10.226;2023-07-08T20:52:53;21.40;99.90
23801;DHT22;12081;48.614;10.226;2023-07-08T20:55:39;22.50;99.90
23801;DHT22;12081;48.614;10.226;2023-07-08T20:58:25;21.30;99.90
23801;DHT22;12081;48.614;10.226;2023-07-08T21:01:09;21.30;99.90
23801;DHT22;12081;48.614;10.226;2023-07-08T21:03:54;21.20;99.90
23801;DHT22;12081;48.614;10.226;2023-07-08T21:06:39;21.10;99.90
23801;DHT22;12081;48.614;10.226;2023-07-08T21:09:23;22.00;99.90
23801;DHT22;12081;48.614;10.226;2023-07-08T21:12:12;22.60;99.90
23801;DHT22;12081;48.614;10.226;2023-07-08T21:14:56;20.70;99.90
23801;DHT22;12081;48.614;10.226;2023-07-08T21:17:42;20.60;99.90
23801;DHT22;12081;48.614;10.226;2023-07-08T21:20:27;20.60;99.90
23801;DHT22;12081;48.614;10.226;2023-07-08T21:23:18;20.50;99.90
23801;DHT22;12081;48.614;10.226;2023-07-08T21:26:02;20.40;99.90
23801;DHT22;12081;48.614;10.226;2023-07-08T21:28:59;20.30;99.90
23801;DHT22;12081;48.614;10.226;2023-07-08T21:31:43;20.20;99.90
23801;DHT22;12081;48.614;10.226;2023-07-08T21:34:28;20.20;99.90
23801;DHT22;12081;48.614;10.226;2023-07-08T21:37:12;22.00;99.90
23801;DHT22;12081;48.614;10.226;2023-07-08T21:39:57;20.40;99.90
23801;DHT22;12081;48.614;10.226;2023-07-08T21:42:42;19.80;99.90
23801;DHT22;12081;48.614;10.226;2023-07-08T21:45:34;19.90;99.90
23801;DHT22;12081;48.614;10.226;2023-07-08T21:48:20;19.70;99.90
23801;DHT22;12081;48.614;10.226;2023-07-08T21:51:29;19.70;99.90
23801;DHT22;12081;48.614;10.226;2023-07-08T21:54:14;19.70;99.90
23801;DHT22;12081;48.614;10.226;2023-07-08T21:56:59;19.70;99.90
23801;DHT22;12081;48.614;10.226;2023-07-08T21:59:43;19.90;99.90
23801;DHT22;12081;48.614;10.226;2023-07-08T22:02:28;19.60;99.90
23801;DHT22;12081;48.614;10.226;2023-07-08T22:05:17;21.70;99.90
23801;DHT22;12081;48.614;10.226;2023-07-08T22:08:02;19.30;99.90
23801;DHT22;12081;48.614;10.226;2023-07-08T22:10:50;19.20;99.90
23801;DHT22;12081;48.614;10.226;2023-07-08T22:13:37;20.00;99.90
23801;DHT22;12081;48.614;10.226;2023-07-08T22:16:23;19.10;99.90
23801;DHT22;12081;48.614;10.226;2023-07-08T22:19:08;19.40;99.90
23801;DHT22;12081;48.614;10.226;2023-07-08T22:21:53;18.80;99.90
23801;DHT22;12081;48.614;10.226;2023-07-08T22:24:39;19.00;99.90
23801;DHT22;12081;48.614;10.226;2023-07-08T22:27:23;19.40;99.90
23801;DHT22;12081;48.614;10.226;2023-07-08T22:30:08;18.80;99.90
23801;DHT22;12081;48.614;10.226;2023-07-08T22:32:53;18.70;99.90
23801;DHT22;12081;48.614;10.226;2023-07-08T22:35:38;19.70;99.90
23801;DHT22;12081;48.614;10.226;2023-07-08T22:38:23;18.70;99.90
23801;DHT22;12081;48.614;10.226;2023-07-08T22:41:10;18.70;99.90
23801;DHT22;12081;48.614;10.226;2023-07-08T22:43:56;18.90;99.90
23801;DHT22;12081;48.614;10.226;2023-07-08T22:46:40;18.60;99.90
23801;DHT22;12081;48.614;10.226;2023-07-08T22:49:25;18.90;99.90
23801;DHT22;12081;48.614;10.226;2023-07-08T22:52:26;18.70;99.90
23801;DHT22;12081;48.614;10.226;2023-07-08T22:55:22;19.00;99.90
23801;DHT22;12081;48.614;10.226;2023-07-08T22:58:34;18.90;99.90
23801;DHT22;12081;48.614;10.226;2023-07-08T23:01:19;18.20;99.90
23801;DHT22;12081;48.614;10.226;2023-07-08T23:04:04;18.10;99.90
23801;DHT22;12081;48.614;10.226;2023-07-08T23:06:49;19.10;99.90
23801;DHT22;12081;48.614;10.226;2023-07-08T23:09:35;18.50;99.90
23801;DHT22;12081;48.614;10.226;2023-07-08T23:12:19;18.00;99.90
23801;DHT22;12081;48.614;10.226;2023-07-08T23:15:05;18.20;99.90
23801;DHT22;12081;48.614;10.226;2023-07-08T23:17:50;18.00;99.90
23801;DHT22;12081;48.614;10.226;2023-07-08T23:24:17;18.10;99.90
23801;DHT22;12081;48.614;10.226;2023-07-08T23:27:01;18.70;99.90
23801;DHT22;12081;48.614;10.226;2023-07-08T23:29:46;17.80;99.90
23801;DHT22;12081;48.614;10.226;2023-07-08T23:32:30;18.80;99.90
23801;DHT22;12081;48.614;10.226;2023-07-08T23:35:15;17.70;99.90
23801;DHT22;12081;48.614;10.226;2023-07-08T23:37:59;17.70;99.90
23801;DHT22;12081;48.614;10.226;2023-07-08T23:40:45;18.50;99.90
23801;DHT22;12081;48.614;10.226;2023-07-08T23:43:30;19.70;99.90
23801;DHT22;12081;48.614;10.226;2023-07-08T23:46:26;17.40;99.90
23801;DHT22;12081;48.614;10.226;2023-07-08T23:49:24;17.40;99.90
23801;DHT22;12081;48.614;10.226;2023-07-08T23:52:13;17.50;99.90
23801;DHT22;12081;48.614;10.226;2023-07-08T23:54:58;19.00;99.90
23801;DHT22;12081;48.614;10.226;2023-07-08T23:57:43;18.30;99.90
